createdAt,value
2022-07-26T00:00:25.476Z,21.50
2022-07-26T00:05:34.179Z,21.50
2022-07-26T00:08:11.349Z,21.50
2022-07-26T00:10:54.916Z,21.40
2022-07-26T00:13:27.862Z,21.40
2022-07-26T00:16:13.361Z,21.40
2022-07-26T00:18:44.601Z,21.40
2022-07-26T00:21:12.346Z,21.40
2022-07-26T00:23:41.645Z,21.40
2022-07-26T00:26:12.335Z,21.40
2022-07-26T00:28:41.331Z,21.30
2022-07-26T00:31:11.813Z,21.30
2022-07-26T00:34:02.012Z,21.30
2022-07-26T00:36:29.872Z,21.30
2022-07-26T00:38:57.371Z,21.30
2022-07-26T00:41:39.876Z,21.30
2022-07-26T00:44:08.115Z,21.30
2022-07-26T00:46:36.068Z,21.30
2022-07-26T00:49:06.133Z,21.30
2022-07-26T00:51:39.954Z,21.30
2022-07-26T00:54:10.378Z,21.30
2022-07-26T00:56:55.189Z,21.30
2022-07-26T00:59:22.847Z,21.20
2022-07-26T01:01:59.637Z,21.20
2022-07-26T01:04:28.589Z,21.20
2022-07-26T01:06:56.177Z,21.20
2022-07-26T01:09:26.820Z,21.20
2022-07-26T01:12:02.711Z,21.20
2022-07-26T01:14:30.158Z,21.20
2022-07-26T01:17:00.217Z,21.10
2022-07-26T01:19:34.568Z,21.10
2022-07-26T01:22:03.781Z,21.10
2022-07-26T01:24:34.388Z,21.10
2022-07-26T01:27:01.791Z,21.10
2022-07-26T01:29:36.049Z,21.00
2022-07-26T01:32:06.356Z,21.00
2022-07-26T01:34:38.835Z,20.90
2022-07-26T01:37:06.372Z,20.90
2022-07-26T01:39:35.646Z,20.90
2022-07-26T01:42:07.725Z,20.80
2022-07-26T01:44:35.113Z,20.80
2022-07-26T01:47:05.804Z,20.70
2022-07-26T01:49:34.057Z,20.60
2022-07-26T01:52:01.446Z,20.60
2022-07-26T01:54:28.901Z,20.50
2022-07-26T01:56:56.439Z,20.30
2022-07-26T01:59:25.655Z,20.20
2022-07-26T02:01:53.045Z,20.20
2022-07-26T02:04:38.997Z,20.10
2022-07-26T02:07:16.269Z,20.10
2022-07-26T02:09:50.850Z,20.10
2022-07-26T02:12:20.905Z,20.00
2022-07-26T02:14:48.316Z,20.00
2022-07-26T02:17:19.350Z,19.90
2022-07-26T02:19:52.469Z,20.00
2022-07-26T02:22:21.134Z,19.90
2022-07-26T02:24:50.951Z,19.90
2022-07-26T02:27:25.943Z,19.90
2022-07-26T02:29:59.311Z,19.90
2022-07-26T02:32:26.614Z,19.80
2022-07-26T02:34:57.065Z,19.80
2022-07-26T02:37:32.024Z,19.80
2022-07-26T02:40:18.542Z,19.80
2022-07-26T02:42:46.747Z,19.80
2022-07-26T02:45:17.387Z,19.80
2022-07-26T02:48:00.319Z,19.80
2022-07-26T02:50:42.259Z,19.80
2022-07-26T02:53:09.566Z,19.70
2022-07-26T02:55:37.011Z,19.80
2022-07-26T02:58:04.749Z,19.70
2022-07-26T03:00:35.038Z,19.80
2022-07-26T03:03:06.900Z,19.80
2022-07-26T03:05:41.276Z,19.80
2022-07-26T03:08:10.490Z,19.70
2022-07-26T03:10:42.836Z,19.70
2022-07-26T03:13:24.846Z,19.70
2022-07-26T03:15:52.517Z,19.70
2022-07-26T03:18:24.440Z,19.70
2022-07-26T03:20:52.786Z,19.70
2022-07-26T03:23:29.162Z,19.70
2022-07-26T03:26:19.246Z,19.70
2022-07-26T03:28:50.655Z,19.60
2022-07-26T03:31:24.803Z,19.60
2022-07-26T03:34:05.909Z,19.70
2022-07-26T03:37:04.183Z,19.70
2022-07-26T03:39:33.027Z,19.60
2022-07-26T03:42:09.702Z,19.60
2022-07-26T03:44:40.548Z,19.60
2022-07-26T03:47:18.853Z,19.60
2022-07-26T03:49:51.109Z,19.50
2022-07-26T03:52:49.001Z,19.50
2022-07-26T03:55:52.800Z,19.50
2022-07-26T03:58:33.301Z,19.50
2022-07-26T04:01:04.190Z,19.50
2022-07-26T04:03:36.557Z,19.50
2022-07-26T04:06:19.364Z,19.50
2022-07-26T04:09:10.371Z,19.50
2022-07-26T04:12:01.250Z,19.50
2022-07-26T04:14:44.119Z,19.50
2022-07-26T04:17:18.956Z,19.60
2022-07-26T04:19:46.623Z,19.60
2022-07-26T04:25:12.332Z,19.70
2022-07-26T04:28:02.604Z,19.70
2022-07-26T04:33:15.515Z,19.80
2022-07-26T04:36:20.463Z,19.90
2022-07-26T04:38:51.986Z,19.90
2022-07-26T04:41:27.026Z,20.00
2022-07-26T04:44:28.067Z,20.00
2022-07-26T04:46:55.482Z,20.10
2022-07-26T04:49:29.977Z,20.10
2022-07-26T04:52:02.142Z,20.20
2022-07-26T04:54:42.003Z,20.30
2022-07-26T04:57:10.897Z,20.40
2022-07-26T04:59:42.392Z,20.40
2022-07-26T05:05:28.380Z,20.60
2022-07-26T05:10:55.600Z,20.80
2022-07-26T05:13:32.669Z,20.90
2022-07-26T05:16:02.992Z,20.90
2022-07-26T05:18:45.824Z,21.00
2022-07-26T05:21:18.861Z,21.10
2022-07-26T05:23:47.535Z,21.20
2022-07-26T05:26:25.143Z,21.30
2022-07-26T05:28:52.504Z,21.40
2022-07-26T05:31:21.750Z,21.40
2022-07-26T05:33:50.910Z,21.40
2022-07-26T05:36:18.370Z,21.40
2022-07-26T05:38:45.740Z,21.50
2022-07-26T05:41:15.699Z,21.60
2022-07-26T05:43:43.812Z,21.60
2022-07-26T05:46:16.855Z,21.70
2022-07-26T05:48:50.704Z,21.80
2022-07-26T05:51:19.505Z,22.00
2022-07-26T05:53:51.725Z,22.20
2022-07-26T05:56:20.753Z,22.30
2022-07-26T05:58:51.486Z,22.30
2022-07-26T06:01:19.534Z,22.30
2022-07-26T06:03:57.247Z,22.40
2022-07-26T06:06:38.330Z,22.40
2022-07-26T06:09:09.083Z,22.60
2022-07-26T06:11:37.161Z,22.60
2022-07-26T06:14:31.438Z,22.70
2022-07-26T06:17:03.050Z,22.60
2022-07-26T06:19:34.709Z,22.40
2022-07-26T06:22:06.237Z,22.30
2022-07-26T06:24:34.720Z,22.40
2022-07-26T06:27:04.799Z,22.60
2022-07-26T06:29:34.071Z,22.60
2022-07-26T06:32:04.540Z,22.70
2022-07-26T06:34:49.078Z,22.80
2022-07-26T06:37:26.511Z,22.90
2022-07-26T06:40:08.058Z,23.10
2022-07-26T06:42:49.368Z,23.10
2022-07-26T06:45:25.612Z,23.20
2022-07-26T06:47:55.451Z,23.00
2022-07-26T06:50:35.597Z,23.20
2022-07-26T06:53:29.389Z,23.30
2022-07-26T06:56:08.726Z,23.20
2022-07-26T06:58:41.305Z,23.20
2022-07-26T07:01:58.694Z,23.40
2022-07-26T07:04:46.504Z,23.40
2022-07-26T07:07:29.604Z,23.90
2022-07-26T07:10:01.501Z,24.00
2022-07-26T07:12:30.605Z,24.00
2022-07-26T07:15:05.316Z,24.40
2022-07-26T07:17:35.274Z,24.50
2022-07-26T07:20:17.752Z,24.50
2022-07-26T07:23:03.424Z,24.50
2022-07-26T07:25:38.186Z,24.70
2022-07-26T07:28:07.594Z,24.80
2022-07-26T07:30:35.236Z,24.70
2022-07-26T07:33:26.337Z,24.60
2022-07-26T07:36:11.744Z,24.80
2022-07-26T07:38:46.052Z,24.90
2022-07-26T07:41:26.420Z,25.00
2022-07-26T07:44:04.100Z,25.00
2022-07-26T07:46:42.193Z,24.60
2022-07-26T07:49:18.635Z,24.70
2022-07-26T07:51:56.760Z,25.00
2022-07-26T07:56:42.871Z,25.40
2022-07-26T07:59:11.754Z,25.60
2022-07-26T08:01:53.208Z,25.60
2022-07-26T08:05:15.967Z,25.60
2022-07-26T08:08:03.157Z,25.40
2022-07-26T08:10:41.770Z,24.90
2022-07-26T08:13:21.913Z,24.90
2022-07-26T08:16:13.834Z,25.50
2022-07-26T08:18:55.776Z,25.80
2022-07-26T08:24:26.968Z,25.00
2022-07-26T08:26:55.095Z,24.60
2022-07-26T08:29:27.578Z,24.10
2022-07-26T08:31:59.948Z,23.90
2022-07-26T08:34:47.987Z,23.60
2022-07-26T08:37:22.809Z,23.40
2022-07-26T08:39:53.341Z,23.50
2022-07-26T08:42:25.427Z,24.00
2022-07-26T08:44:57.261Z,24.70
2022-07-26T08:48:16.264Z,25.10
2022-07-26T08:50:43.292Z,25.80
2022-07-26T08:53:15.722Z,25.20
2022-07-26T08:56:09.166Z,25.00
2022-07-26T08:58:58.341Z,25.30
2022-07-26T09:01:30.595Z,25.30
2022-07-26T09:04:31.834Z,25.50
2022-07-26T09:07:19.466Z,26.30
2022-07-26T09:11:40.340Z,26.90
2022-07-26T09:14:13.910Z,27.30
2022-07-26T09:17:02.707Z,27.40
2022-07-26T09:19:38.859Z,27.40
2022-07-26T09:22:23.702Z,27.10
2022-07-26T09:25:01.839Z,26.80
2022-07-26T09:27:52.208Z,26.80
2022-07-26T09:30:27.219Z,26.20
2022-07-26T09:33:22.179Z,25.90
2022-07-26T09:39:02.411Z,25.70
2022-07-26T09:44:53.496Z,25.20
2022-07-26T09:47:26.091Z,25.70
2022-07-26T09:50:24.119Z,25.80
2022-07-26T09:53:13.227Z,25.90
2022-07-26T09:55:56.680Z,26.50
2022-07-26T10:01:33.925Z,26.70
2022-07-26T10:04:18.843Z,27.20
2022-07-26T10:06:59.491Z,27.00
2022-07-26T10:09:33.885Z,26.80
2022-07-26T10:12:14.514Z,27.00
2022-07-26T10:14:57.865Z,27.50
2022-07-26T10:17:51.663Z,27.90
2022-07-26T10:20:54.611Z,28.10
2022-07-26T10:24:05.581Z,27.80
2022-07-26T10:26:38.519Z,27.40
2022-07-26T10:29:41.986Z,27.60
2022-07-26T10:32:35.612Z,27.60
2022-07-26T10:35:56.762Z,27.50
2022-07-26T10:38:33.891Z,27.60
2022-07-26T10:41:21.646Z,27.60
2022-07-26T10:44:45.564Z,27.60
2022-07-26T10:47:34.920Z,28.00
2022-07-26T10:50:09.140Z,27.10
2022-07-26T10:53:07.415Z,26.60
2022-07-26T10:56:10.294Z,26.70
2022-07-26T10:58:49.858Z,27.00
2022-07-26T11:01:55.714Z,27.60
2022-07-26T11:04:29.216Z,28.30
2022-07-26T11:07:04.297Z,28.20
2022-07-26T11:09:40.342Z,28.10
2022-07-26T11:12:39.331Z,27.80
2022-07-26T11:15:42.421Z,27.60
2022-07-26T11:18:26.373Z,28.20
2022-07-26T11:21:12.291Z,27.70
2022-07-26T11:23:54.673Z,26.90
2022-07-26T11:26:34.306Z,26.70
2022-07-26T11:32:14.553Z,26.60
2022-07-26T11:34:59.487Z,27.00
2022-07-26T11:37:28.329Z,27.40
2022-07-26T11:39:56.013Z,27.40
2022-07-26T11:42:26.231Z,27.40
2022-07-26T11:47:55.699Z,28.20
2022-07-26T11:50:38.753Z,28.70
2022-07-26T11:53:23.912Z,28.80
2022-07-26T11:55:57.734Z,29.20
2022-07-26T11:58:39.985Z,29.40
2022-07-26T12:01:13.394Z,29.10
2022-07-26T12:04:21.892Z,28.40
2022-07-26T12:06:56.009Z,28.20
2022-07-26T12:09:45.792Z,28.50
2022-07-26T12:12:43.629Z,28.70
2022-07-26T12:15:11.200Z,28.80
2022-07-26T12:17:43.096Z,29.10
2022-07-26T12:20:35.523Z,29.20
2022-07-26T12:23:10.586Z,29.20
2022-07-26T12:28:58.404Z,29.00
2022-07-26T12:31:44.417Z,29.00
2022-07-26T12:34:18.818Z,29.10
2022-07-26T12:39:27.520Z,29.80
2022-07-26T12:42:06.236Z,30.20
2022-07-26T12:44:47.800Z,30.10
2022-07-26T12:47:36.869Z,30.20
2022-07-26T12:58:03.443Z,28.80
2022-07-26T13:00:31.069Z,27.70
2022-07-26T13:02:58.485Z,27.20
2022-07-26T13:05:25.974Z,26.90
2022-07-26T13:07:54.288Z,26.80
2022-07-26T13:10:33.249Z,26.90
2022-07-26T13:13:01.640Z,26.70
2022-07-26T13:15:36.584Z,26.60
2022-07-26T13:18:08.975Z,26.60
2022-07-26T13:20:37.757Z,26.60
2022-07-26T13:23:05.861Z,26.60
2022-07-26T13:25:38.331Z,26.60
2022-07-26T13:28:07.456Z,26.50
2022-07-26T13:30:37.255Z,26.40
2022-07-26T13:49:17.721Z,26.60
2022-07-26T13:51:57.366Z,26.50
2022-07-26T13:54:29.211Z,26.50
2022-07-26T13:56:57.505Z,26.50
2022-07-26T13:59:25.930Z,26.60
2022-07-26T14:01:54.537Z,26.70
2022-07-26T14:04:23.075Z,26.70
2022-07-26T14:06:51.182Z,26.70
2022-07-26T14:09:20.113Z,26.70
2022-07-26T14:11:47.808Z,26.70
2022-07-26T14:14:15.995Z,26.70
2022-07-26T14:16:43.578Z,26.70
2022-07-26T14:19:15.560Z,26.80
2022-07-26T14:21:47.181Z,26.80
2022-07-26T14:24:26.478Z,26.80
2022-07-26T14:26:58.431Z,26.80
2022-07-26T14:29:27.301Z,26.80
2022-07-26T14:31:54.789Z,26.80
2022-07-26T14:34:22.225Z,26.80
2022-07-26T14:36:49.563Z,26.80
2022-07-26T14:39:16.985Z,26.80
2022-07-26T14:41:44.430Z,26.80
2022-07-26T14:44:12.182Z,26.80
2022-07-26T14:46:40.056Z,26.80
2022-07-26T14:49:07.527Z,26.80
2022-07-26T14:51:36.682Z,26.80
2022-07-26T14:54:04.502Z,26.80
2022-07-26T14:56:31.821Z,26.90
2022-07-26T14:58:59.255Z,26.90
2022-07-26T15:01:27.674Z,26.90
2022-07-26T15:03:55.243Z,26.90
2022-07-26T15:06:23.287Z,26.90
2022-07-26T15:08:50.708Z,26.80
2022-07-26T15:11:18.102Z,26.90
2022-07-26T15:13:45.482Z,26.90
2022-07-26T15:16:13.560Z,26.90
2022-07-26T15:18:41.003Z,26.90
2022-07-26T15:21:08.344Z,26.90
2022-07-26T15:23:36.665Z,26.90
2022-07-26T15:26:04.087Z,26.90
2022-07-26T15:28:31.514Z,26.90
2022-07-26T15:30:58.863Z,26.90
2022-07-26T15:33:26.304Z,26.90
2022-07-26T15:35:55.462Z,26.90
2022-07-26T15:38:23.019Z,26.90
2022-07-26T15:40:50.435Z,26.90
2022-07-26T15:43:22.552Z,26.90
2022-07-26T15:46:10.177Z,26.90
2022-07-26T15:48:38.476Z,26.90
2022-07-26T15:51:05.973Z,26.90
2022-07-26T15:53:34.617Z,26.90
2022-07-26T15:56:02.856Z,27.00
2022-07-26T15:58:30.278Z,27.00
2022-07-26T16:01:00.608Z,27.00
2022-07-26T16:03:28.580Z,27.00
2022-07-26T16:05:56.907Z,27.00
2022-07-26T16:08:24.482Z,27.00
2022-07-26T16:10:51.938Z,26.90
2022-07-26T16:13:19.335Z,27.00
2022-07-26T16:15:46.692Z,27.00
2022-07-26T16:18:15.427Z,27.00
2022-07-26T16:20:42.856Z,27.00
2022-07-26T16:23:10.340Z,27.00
2022-07-26T16:25:37.803Z,27.00
2022-07-26T16:28:05.522Z,27.00
2022-07-26T16:30:32.890Z,27.00
2022-07-26T16:33:00.439Z,27.00
2022-07-26T16:35:28.073Z,27.00
2022-07-26T16:37:55.473Z,27.00
2022-07-26T16:40:22.905Z,27.00
2022-07-26T16:42:50.347Z,27.00
2022-07-26T16:45:17.867Z,27.00
2022-07-26T16:47:45.293Z,27.00
2022-07-26T16:50:12.654Z,27.00
2022-07-26T16:52:39.967Z,27.00
2022-07-26T16:55:10.936Z,27.00
2022-07-26T16:57:39.044Z,27.00
2022-07-26T17:00:09.356Z,27.00
2022-07-26T17:02:37.168Z,27.00
2022-07-26T17:05:07.492Z,27.00
2022-07-26T17:07:36.832Z,27.00
2022-07-26T17:10:06.468Z,27.00
2022-07-26T17:12:34.116Z,27.00
2022-07-26T17:15:01.513Z,27.00
2022-07-26T17:17:28.954Z,27.10
2022-07-26T17:19:56.348Z,27.10
2022-07-26T17:22:23.869Z,27.00
2022-07-26T17:24:51.270Z,27.00
2022-07-26T17:27:18.766Z,27.00
2022-07-26T17:29:46.272Z,27.10
2022-07-26T17:32:13.635Z,27.00
2022-07-26T17:34:41.253Z,27.10
2022-07-26T17:37:10.207Z,27.10
2022-07-26T17:39:51.419Z,27.00
2022-07-26T17:42:22.154Z,27.10
2022-07-26T17:44:50.814Z,27.10
2022-07-26T17:47:29.442Z,27.00
2022-07-26T17:50:14.132Z,27.00
2022-07-26T17:52:48.011Z,27.10
2022-07-26T17:55:15.972Z,27.10
2022-07-26T17:57:43.373Z,27.10
2022-07-26T18:00:11.640Z,27.10
2022-07-26T18:02:39.027Z,27.10
2022-07-26T18:05:06.787Z,27.10
2022-07-26T18:07:34.162Z,27.10
2022-07-26T18:10:01.555Z,27.10
2022-07-26T18:12:30.561Z,27.10
2022-07-26T18:14:58.076Z,27.10
2022-07-26T18:17:25.538Z,27.00
2022-07-26T18:19:52.989Z,27.10
2022-07-26T18:22:20.368Z,27.10
2022-07-26T18:24:47.796Z,27.10
2022-07-26T18:27:15.125Z,27.10
2022-07-26T18:29:42.528Z,27.10
2022-07-26T18:32:09.920Z,27.10
2022-07-26T18:34:37.417Z,27.10
2022-07-26T18:37:05.227Z,27.10
2022-07-26T18:39:33.054Z,27.10
2022-07-26T18:42:01.250Z,27.10
2022-07-26T18:44:28.650Z,27.10
2022-07-26T18:46:56.501Z,27.10
2022-07-26T18:49:30.890Z,27.10
2022-07-26T18:52:04.277Z,27.10
2022-07-26T18:54:36.618Z,27.10
2022-07-26T18:57:04.522Z,27.10
2022-07-26T18:59:32.380Z,27.10
2022-07-26T19:02:00.320Z,27.10
2022-07-26T19:04:28.147Z,27.10
2022-07-26T19:06:56.138Z,27.10
2022-07-26T19:09:23.633Z,27.10
2022-07-26T19:11:51.041Z,27.10
2022-07-26T19:14:18.632Z,27.10
2022-07-26T19:16:46.048Z,27.10
2022-07-26T19:19:13.907Z,27.10
2022-07-26T19:21:46.376Z,27.10
2022-07-26T19:24:13.892Z,27.10
2022-07-26T19:26:41.463Z,27.10
2022-07-26T19:29:09.101Z,27.10
2022-07-26T19:31:36.765Z,27.10
2022-07-26T19:34:04.256Z,27.10
2022-07-26T19:36:31.786Z,27.10
2022-07-26T19:39:01.319Z,27.10
2022-07-26T19:41:28.776Z,27.10
2022-07-26T19:43:56.422Z,27.10
2022-07-26T19:46:27.983Z,27.10
2022-07-26T19:48:55.441Z,27.10
2022-07-26T19:51:22.778Z,27.10
2022-07-26T19:53:50.308Z,27.10
2022-07-26T19:56:17.685Z,27.10
2022-07-26T19:58:46.322Z,27.10
2022-07-26T20:01:13.768Z,27.10
2022-07-26T20:03:41.343Z,27.10
2022-07-26T20:06:08.909Z,27.10
2022-07-26T20:08:36.347Z,27.10
2022-07-26T20:11:03.756Z,27.10
2022-07-26T20:13:31.440Z,27.10
2022-07-26T20:15:59.349Z,27.10
2022-07-26T20:18:28.355Z,27.10
2022-07-26T20:20:56.313Z,27.10
2022-07-26T20:23:24.197Z,27.10
2022-07-26T20:25:51.704Z,27.10
2022-07-26T20:28:19.632Z,27.10
2022-07-26T20:30:48.500Z,27.10
2022-07-26T20:33:16.611Z,27.10
2022-07-26T20:35:44.951Z,27.10
2022-07-26T20:38:12.331Z,27.10
2022-07-26T20:40:40.394Z,27.10
2022-07-26T20:43:07.829Z,27.10
2022-07-26T20:45:35.336Z,27.10
2022-07-26T20:48:02.995Z,27.10
2022-07-26T20:50:30.453Z,27.10
2022-07-26T20:52:57.816Z,27.10
2022-07-26T20:55:25.219Z,27.00
2022-07-26T20:57:52.662Z,27.00
2022-07-26T21:00:20.256Z,27.00
2022-07-26T21:02:47.737Z,27.00
2022-07-26T21:05:15.258Z,27.00
2022-07-26T21:07:55.120Z,27.00
2022-07-26T21:10:29.376Z,27.00
2022-07-26T21:13:00.209Z,27.00
2022-07-26T21:15:28.861Z,27.00
2022-07-26T21:17:56.644Z,27.00
2022-07-26T21:20:24.224Z,27.00
2022-07-26T21:22:51.561Z,27.00
2022-07-26T21:25:19.090Z,27.00
2022-07-26T21:27:46.544Z,27.00
2022-07-26T21:30:14.139Z,27.00
2022-07-26T21:32:41.543Z,27.00
2022-07-26T21:35:09.077Z,27.00
2022-07-26T21:37:36.476Z,27.00
2022-07-26T21:40:04.260Z,27.00
2022-07-26T21:42:31.595Z,27.00
2022-07-26T21:44:58.952Z,27.00
2022-07-26T21:47:26.412Z,27.00
2022-07-26T21:49:53.779Z,27.00
2022-07-26T21:52:21.121Z,27.00
2022-07-26T21:54:48.500Z,27.00
2022-07-26T21:57:15.860Z,27.00
2022-07-26T21:59:43.284Z,27.00
2022-07-26T22:02:10.671Z,27.00
2022-07-26T22:04:38.176Z,27.00
2022-07-26T22:07:05.775Z,27.00
2022-07-26T22:09:34.541Z,27.00
2022-07-26T22:12:01.931Z,27.00
2022-07-26T22:14:29.358Z,27.00
2022-07-26T22:16:56.810Z,27.00
2022-07-26T22:19:24.270Z,27.00
2022-07-26T22:21:51.755Z,27.00
2022-07-26T22:24:19.144Z,27.00
2022-07-26T22:26:46.496Z,27.00
2022-07-26T22:29:14.274Z,27.00
2022-07-26T22:31:41.805Z,27.00
2022-07-26T22:34:09.225Z,27.00
2022-07-26T22:36:36.573Z,27.00
2022-07-26T22:39:04.092Z,27.00
2022-07-26T22:41:31.995Z,27.00
2022-07-26T22:44:00.190Z,26.90
2022-07-26T22:46:29.627Z,27.00
2022-07-26T22:48:57.195Z,26.90
2022-07-26T22:51:24.553Z,27.00
2022-07-26T22:53:51.923Z,26.90
2022-07-26T22:56:19.854Z,26.90
2022-07-26T22:58:47.504Z,26.90
2022-07-26T23:01:16.701Z,26.90
2022-07-26T23:03:44.587Z,26.90
2022-07-26T23:06:31.281Z,26.90
2022-07-26T23:08:59.184Z,26.90
2022-07-26T23:11:26.599Z,26.90
2022-07-26T23:13:58.971Z,26.90
2022-07-26T23:16:27.186Z,26.90
2022-07-26T23:18:56.391Z,26.90
2022-07-26T23:21:23.915Z,26.90
2022-07-26T23:23:51.367Z,26.90
2022-07-26T23:26:18.752Z,26.90
2022-07-26T23:28:46.183Z,26.90
2022-07-26T23:31:14.403Z,26.90
2022-07-26T23:33:52.291Z,26.90
2022-07-26T23:36:26.719Z,26.90
2022-07-26T23:38:56.071Z,26.90
2022-07-26T23:41:23.867Z,26.90
2022-07-26T23:43:51.623Z,26.90
2022-07-26T23:46:19.112Z,26.90
2022-07-26T23:48:46.863Z,26.90
2022-07-26T23:51:14.905Z,26.90
2022-07-26T23:53:42.574Z,26.90
2022-07-26T23:56:09.947Z,26.90
2022-07-26T23:58:37.701Z,26.90
